createdAt,value
2023-08-08T00:01:07.181Z,47.33
2023-08-08T00:06:12.817Z,46.00
2023-08-08T00:11:17.820Z,48.00
2023-08-08T00:16:23.221Z,48.50
2023-08-08T00:21:30.200Z,48.50
2023-08-08T00:26:36.105Z,50.00
2023-08-08T00:31:41.130Z,50.00
2023-08-08T00:36:46.901Z,50.00
2023-08-08T00:41:51.936Z,48.50
2023-08-08T00:46:57.279Z,49.25
2023-08-08T00:52:03.442Z,49.50
2023-08-08T00:57:08.815Z,50.00
2023-08-08T01:02:14.690Z,50.00
2023-08-08T01:07:43.896Z,50.00
2023-08-08T01:12:59.061Z,50.00
2023-08-08T01:18:06.432Z,50.00
2023-08-08T01:23:29.526Z,49.00
2023-08-08T01:33:41.532Z,49.25
2023-08-08T01:38:50.798Z,50.00
2023-08-08T01:43:56.411Z,50.00
2023-08-08T01:49:03.127Z,49.75
2023-08-08T01:54:08.165Z,50.00
2023-08-08T01:59:14.995Z,50.00
2023-08-08T02:04:23.520Z,50.00
2023-08-08T02:09:31.871Z,50.00
2023-08-08T02:14:37.248Z,50.00
2023-08-08T02:19:42.959Z,50.00
2023-08-08T02:24:50.168Z,50.00
2023-08-08T02:29:56.204Z,50.00
2023-08-08T02:35:03.209Z,48.00
2023-08-08T02:40:10.384Z,48.50
2023-08-08T02:45:15.771Z,50.00
2023-08-08T02:50:22.262Z,49.00
2023-08-08T02:55:29.239Z,49.25
2023-08-08T03:00:36.177Z,49.75
2023-08-08T03:05:42.569Z,50.00
2023-08-08T03:10:49.301Z,50.00
2023-08-08T03:15:54.857Z,50.00
2023-08-08T03:21:01.863Z,49.33
2023-08-08T03:26:11.673Z,50.00
2023-08-08T03:31:18.101Z,50.00
2023-08-08T03:36:24.975Z,47.75
2023-08-08T03:41:31.354Z,48.00
2023-08-08T03:46:37.378Z,48.00
2023-08-08T03:56:49.231Z,48.25
2023-08-08T04:01:56.655Z,45.33
2023-08-08T04:07:03.525Z,48.75
2023-08-08T04:12:10.513Z,47.67
2023-08-08T04:17:16.526Z,49.00
2023-08-08T04:22:22.391Z,50.00
2023-08-08T04:27:28.233Z,49.50
2023-08-08T04:32:33.645Z,48.75
2023-08-08T04:37:39.077Z,49.75
2023-08-08T04:42:44.662Z,48.25
2023-08-08T04:47:52.317Z,48.75
2023-08-08T04:52:57.925Z,47.00
2023-08-08T04:58:04.094Z,49.00
2023-08-08T05:03:09.912Z,50.00
2023-08-08T05:08:16.986Z,50.00
2023-08-08T05:13:22.395Z,48.75
2023-08-08T05:18:28.056Z,47.50
2023-08-08T05:28:40.077Z,50.00
2023-08-08T05:33:45.467Z,50.00
2023-08-08T05:38:50.827Z,50.00
2023-08-08T05:43:58.009Z,50.00
2023-08-08T05:49:04.111Z,50.00
2023-08-08T05:54:09.502Z,50.00
2023-08-08T05:59:14.518Z,50.00
2023-08-08T06:04:19.965Z,50.00
2023-08-08T06:09:25.721Z,50.00
2023-08-08T06:14:31.797Z,50.00
2023-08-08T06:19:37.109Z,50.00
2023-08-08T06:24:43.781Z,50.00
2023-08-08T06:29:49.860Z,50.00
2023-08-08T06:34:56.249Z,50.00
2023-08-08T06:40:02.366Z,50.00
2023-08-08T06:45:08.950Z,50.00
2023-08-08T06:55:19.784Z,50.00
2023-08-08T07:00:25.622Z,50.00
2023-08-08T07:05:32.570Z,50.00
2023-08-08T07:10:39.309Z,50.00
2023-08-08T07:15:45.062Z,50.00
2023-08-08T07:20:51.807Z,50.00
2023-08-08T07:25:58.149Z,50.00
2023-08-08T07:31:04.062Z,50.00
2023-08-08T07:41:15.218Z,50.00
2023-08-08T07:46:21.025Z,49.67
2023-08-08T07:51:27.007Z,50.00
2023-08-08T07:56:32.439Z,50.00
2023-08-08T08:01:38.921Z,50.00
2023-08-08T08:06:45.389Z,50.00
2023-08-08T08:11:50.961Z,50.00
2023-08-08T08:16:56.700Z,47.00
2023-08-08T08:22:02.450Z,48.00
2023-08-08T08:27:08.455Z,46.50
2023-08-08T08:32:13.870Z,48.00
2023-08-08T08:37:19.157Z,47.50
2023-08-08T08:42:28.650Z,50.00
2023-08-08T08:47:36.412Z,48.75
2023-08-08T08:52:42.179Z,48.75
2023-08-08T08:57:49.461Z,44.00
2023-08-08T09:02:57.914Z,49.00
2023-08-08T09:08:03.624Z,48.50
2023-08-08T09:13:09.219Z,43.33
2023-08-08T09:18:17.042Z,41.00
2023-08-08T09:23:22.984Z,45.00
2023-08-08T09:28:28.861Z,45.67
2023-08-08T09:33:35.196Z,46.33
2023-08-08T09:38:40.851Z,42.67
2023-08-08T09:43:51.451Z,48.00
2023-08-08T09:48:58.453Z,38.00
2023-08-08T09:54:06.611Z,48.00
2023-08-08T09:59:15.781Z,47.00
2023-08-08T10:04:22.138Z,44.33
2023-08-08T10:09:29.701Z,47.33
2023-08-08T10:14:38.970Z,47.67
2023-08-08T10:24:58.864Z,41.00
2023-08-08T10:30:12.781Z,43.50
2023-08-08T10:35:18.034Z,44.75
2023-08-08T10:40:23.531Z,47.75
2023-08-08T10:45:33.421Z,48.00
2023-08-08T10:50:44.819Z,45.33
2023-08-08T10:55:52.774Z,42.00
2023-08-08T11:00:57.923Z,43.75
2023-08-08T11:06:04.076Z,41.67
2023-08-08T11:11:09.898Z,47.00
2023-08-08T11:21:19.611Z,43.00
2023-08-08T11:26:25.488Z,48.00
2023-08-08T11:31:31.467Z,45.50
2023-08-08T11:41:44.027Z,47.00
2023-08-08T11:46:50.414Z,42.00
2023-08-08T11:52:02.603Z,48.00
2023-08-08T11:57:09.075Z,45.75
2023-08-08T12:02:15.917Z,47.67
2023-08-08T12:07:22.694Z,44.75
2023-08-08T12:12:30.845Z,46.75
2023-08-08T12:17:36.295Z,47.00
2023-08-08T12:22:41.217Z,43.00
2023-08-08T12:27:45.941Z,48.00
2023-08-08T12:32:51.944Z,45.33
2023-08-08T12:37:57.604Z,47.00
2023-08-08T12:43:03.512Z,46.00
2023-08-08T12:48:08.860Z,43.67
2023-08-08T12:53:13.920Z,44.00
2023-08-08T12:58:21.106Z,41.00
2023-08-08T13:03:27.193Z,45.25
2023-08-08T13:08:33.725Z,47.50
2023-08-08T13:13:38.891Z,47.33
2023-08-08T13:18:43.725Z,47.75
2023-08-08T13:23:50.457Z,47.00
2023-08-08T13:28:56.421Z,47.33
2023-08-08T13:34:01.613Z,50.00
2023-08-08T13:39:06.874Z,48.67
2023-08-08T13:44:12.912Z,43.00
2023-08-08T13:49:18.540Z,48.75
2023-08-08T13:54:24.470Z,48.50
2023-08-08T13:59:29.887Z,49.00
2023-08-08T14:04:34.661Z,48.67
2023-08-08T14:09:39.872Z,50.00
2023-08-08T14:14:46.152Z,48.33
2023-08-08T14:19:52.017Z,50.00
2023-08-08T14:24:57.071Z,48.25
2023-08-08T14:30:01.925Z,49.50
2023-08-08T14:35:07.733Z,49.67
2023-08-08T14:40:13.293Z,50.00
2023-08-08T14:45:18.771Z,50.00
2023-08-08T14:50:23.772Z,50.00
2023-08-08T14:55:29.611Z,50.00
2023-08-08T15:00:34.664Z,50.00
2023-08-08T15:05:40.966Z,50.00
2023-08-08T15:10:45.949Z,48.67
2023-08-08T15:15:52.296Z,50.00
2023-08-08T15:20:57.336Z,50.00
2023-08-08T15:31:08.186Z,48.00
2023-08-08T15:36:13.577Z,50.00
2023-08-08T15:41:18.687Z,50.00
2023-08-08T15:46:23.764Z,50.00
2023-08-08T15:51:29.012Z,48.00
2023-08-08T15:56:33.968Z,50.00
2023-08-08T16:01:39.123Z,50.00
2023-08-08T16:06:44.325Z,50.00
2023-08-08T16:11:50.330Z,50.00
2023-08-08T16:16:55.285Z,50.00
2023-08-08T16:22:00.357Z,50.00
2023-08-08T16:27:08.425Z,50.00
2023-08-08T16:32:14.349Z,50.00
2023-08-08T16:37:20.128Z,50.00
2023-08-08T16:47:34.535Z,50.00
2023-08-08T16:52:40.166Z,50.00
2023-08-08T16:57:47.342Z,50.00
2023-08-08T17:02:53.474Z,50.00
2023-08-08T17:07:58.744Z,50.00
2023-08-08T17:13:05.161Z,50.00
2023-08-08T17:23:21.427Z,50.00
2023-08-08T17:28:26.306Z,54.50
2023-08-08T17:33:32.048Z,50.00
2023-08-08T17:38:37.208Z,50.00
2023-08-08T17:48:46.698Z,50.00
2023-08-08T17:53:52.550Z,50.00
2023-08-08T17:58:58.703Z,67.00
2023-08-08T18:04:04.803Z,67.50
2023-08-08T18:09:10.745Z,67.33
2023-08-08T18:14:15.843Z,50.00
2023-08-08T18:19:22.436Z,73.67
2023-08-08T18:24:27.746Z,50.00
2023-08-08T18:29:32.803Z,50.00
2023-08-08T18:34:39.821Z,53.50
2023-08-08T18:39:47.148Z,50.00
2023-08-08T18:44:52.360Z,50.00
2023-08-08T18:49:57.580Z,68.00
2023-08-08T18:55:02.679Z,50.00
2023-08-08T19:00:09.508Z,65.33
2023-08-08T19:05:14.533Z,77.00
2023-08-08T19:10:20.779Z,74.00
2023-08-08T19:15:26.821Z,80.00
2023-08-08T19:20:32.135Z,72.00
2023-08-08T19:25:37.252Z,68.33
2023-08-08T19:30:42.879Z,50.00
2023-08-08T19:35:47.840Z,66.50
2023-08-08T19:40:54.731Z,50.00
2023-08-08T19:46:01.042Z,61.00
2023-08-08T19:51:07.232Z,67.75
2023-08-08T19:56:13.034Z,79.33
2023-08-08T20:01:18.994Z,55.25
2023-08-08T20:06:24.004Z,70.67
2023-08-08T20:11:29.579Z,50.00
2023-08-08T20:16:35.161Z,50.00
2023-08-08T20:21:41.223Z,50.00
2023-08-08T20:26:46.990Z,50.00
2023-08-08T20:31:51.966Z,50.00
2023-08-08T20:36:56.842Z,54.67
2023-08-08T20:42:03.456Z,66.25
2023-08-08T20:47:08.594Z,50.00
2023-08-08T20:52:14.305Z,67.67
2023-08-08T20:57:20.123Z,50.00
2023-08-08T21:02:25.450Z,67.67
2023-08-08T21:07:30.680Z,50.00
2023-08-08T21:12:36.728Z,50.00
2023-08-08T21:17:49.501Z,50.00
2023-08-08T21:22:54.532Z,50.00
2023-08-08T21:28:01.776Z,50.00
2023-08-08T21:38:12.611Z,70.00
2023-08-08T21:43:18.392Z,50.00
2023-08-08T21:48:23.467Z,50.00
2023-08-08T21:53:30.008Z,68.00
2023-08-08T21:58:37.373Z,67.00
2023-08-08T22:03:42.142Z,50.00
2023-08-08T22:08:47.368Z,63.33
2023-08-08T22:13:52.259Z,68.00
2023-08-08T22:18:58.095Z,62.67
2023-08-08T22:24:04.017Z,77.25
2023-08-08T22:29:09.541Z,70.00
2023-08-08T22:34:15.063Z,74.50
2023-08-08T22:39:20.058Z,50.00
2023-08-08T22:44:24.725Z,71.50
2023-08-08T22:49:30.547Z,65.75
2023-08-08T22:54:35.411Z,67.00
2023-08-08T22:59:40.667Z,71.50
2023-08-08T23:04:45.665Z,66.33
2023-08-08T23:09:51.008Z,82.50
2023-08-08T23:14:55.687Z,80.50
2023-08-08T23:20:00.813Z,75.00
2023-08-08T23:25:07.881Z,76.00
2023-08-08T23:30:12.920Z,82.67
2023-08-08T23:35:17.623Z,82.50
2023-08-08T23:40:22.802Z,95.67
2023-08-08T23:45:27.469Z,84.00
2023-08-08T23:50:33.558Z,85.25
2023-08-08T23:55:38.530Z,84.25
